sensor_id;sensor_type;location;lat;lon;timestamp;temperature;humidity
15556;DHT22;7879;48.660;9.116;2024-01-30T00:01:08;0.60;99.90
15556;DHT22;7879;48.660;9.116;2024-01-30T00:03:35;0.60;99.90
15556;DHT22;7879;48.660;9.116;2024-01-30T00:06:03;0.60;99.90
15556;DHT22;7879;48.660;9.116;2024-01-30T00:08:30;0.60;99.90
15556;DHT22;7879;48.660;9.116;2024-01-30T00:10:57;0.60;99.90
15556;DHT22;7879;48.660;9.116;2024-01-30T00:13:24;0.60;99.90
15556;DHT22;7879;48.660;9.116;2024-01-30T00:15:51;0.50;99.90
15556;DHT22;7879;48.660;9.116;2024-01-30T00:18:18;0.50;99.90
15556;DHT22;7879;48.660;9.116;2024-01-30T00:20:45;0.50;99.90
15556;DHT22;7879;48.660;9.116;2024-01-30T00:23:12;0.50;99.90
15556;DHT22;7879;48.660;9.116;2024-01-30T00:25:39;0.50;99.90
15556;DHT22;7879;48.660;9.116;2024-01-30T00:28:06;0.50;99.90
15556;DHT22;7879;48.660;9.116;2024-01-30T00:30:33;0.50;99.90
15556;DHT22;7879;48.660;9.116;2024-01-30T00:33:00;0.50;99.90
15556;DHT22;7879;48.660;9.116;2024-01-30T00:35:27;0.50;99.90
15556;DHT22;7879;48.660;9.116;2024-01-30T00:37:56;0.50;99.90
15556;DHT22;7879;48.660;9.116;2024-01-30T00:40:24;0.50;99.90
15556;DHT22;7879;48.660;9.116;2024-01-30T00:42:51;0.50;99.90
15556;DHT22;7879;48.660;9.116;2024-01-30T00:45:18;0.50;99.90
15556;DHT22;7879;48.660;9.116;2024-01-30T00:47:45;0.50;99.90
15556;DHT22;7879;48.660;9.116;2024-01-30T00:50:12;0.50;99.90
15556;DHT22;7879;48.660;9.116;2024-01-30T00:52:39;0.50;99.90
15556;DHT22;7879;48.660;9.116;2024-01-30T00:55:06;0.50;99.90
15556;DHT22;7879;48.660;9.116;2024-01-30T00:57:34;0.50;99.90
15556;DHT22;7879;48.660;9.116;2024-01-30T01:00:00;0.40;99.90
15556;DHT22;7879;48.660;9.116;2024-01-30T01:02:27;0.40;99.90
15556;DHT22;7879;48.660;9.116;2024-01-30T01:04:54;0.40;99.90
15556;DHT22;7879;48.660;9.116;2024-01-30T01:07:21;0.40;99.90
15556;DHT22;7879;48.660;9.116;2024-01-30T01:09:48;0.40;99.90
15556;DHT22;7879;48.660;9.116;2024-01-30T01:12:15;0.50;99.90
15556;DHT22;7879;48.660;9.116;2024-01-30T01:14:42;0.50;99.90
15556;DHT22;7879;48.660;9.116;2024-01-30T01:17:09;0.50;99.90
15556;DHT22;7879;48.660;9.116;2024-01-30T01:19:36;0.50;99.90
15556;DHT22;7879;48.660;9.116;2024-01-30T01:22:03;0.40;99.90
15556;DHT22;7879;48.660;9.116;2024-01-30T01:24:33;0.30;99.90
15556;DHT22;7879;48.660;9.116;2024-01-30T01:27:00;0.30;99.90
15556;DHT22;7879;48.660;9.116;2024-01-30T01:29:28;0.40;99.90
15556;DHT22;7879;48.660;9.116;2024-01-30T01:31:58;0.40;99.90
15556;DHT22;7879;48.660;9.116;2024-01-30T01:34:25;0.40;99.90
15556;DHT22;7879;48.660;9.116;2024-01-30T01:36:56;0.40;99.90
15556;DHT22;7879;48.660;9.116;2024-01-30T01:39:23;0.40;99.90
15556;DHT22;7879;48.660;9.116;2024-01-30T01:41:50;0.40;99.90
15556;DHT22;7879;48.660;9.116;2024-01-30T01:44:18;0.30;99.90
15556;DHT22;7879;48.660;9.116;2024-01-30T01:46:45;0.30;99.90
15556;DHT22;7879;48.660;9.116;2024-01-30T01:49:13;0.30;99.90
15556;DHT22;7879;48.660;9.116;2024-01-30T01:51:41;0.30;99.90
15556;DHT22;7879;48.660;9.116;2024-01-30T01:54:09;0.30;99.90
15556;DHT22;7879;48.660;9.116;2024-01-30T01:56:37;0.30;99.90
15556;DHT22;7879;48.660;9.116;2024-01-30T01:59:06;0.30;99.90
15556;DHT22;7879;48.660;9.116;2024-01-30T02:01:36;0.30;99.90
15556;DHT22;7879;48.660;9.116;2024-01-30T02:04:04;0.30;99.90
15556;DHT22;7879;48.660;9.116;2024-01-30T02:06:32;0.20;99.90
15556;DHT22;7879;48.660;9.116;2024-01-30T02:09:00;0.20;99.90
15556;DHT22;7879;48.660;9.116;2024-01-30T02:11:28;0.20;99.90
15556;DHT22;7879;48.660;9.116;2024-01-30T02:13:55;0.20;99.90
15556;DHT22;7879;48.660;9.116;2024-01-30T02:16:22;0.20;99.90
15556;DHT22;7879;48.660;9.116;2024-01-30T02:18:48;0.20;99.90
15556;DHT22;7879;48.660;9.116;2024-01-30T02:21:16;0.20;99.90
15556;DHT22;7879;48.660;9.116;2024-01-30T02:23:44;0.20;99.90
15556;DHT22;7879;48.660;9.116;2024-01-30T02:26:12;0.20;99.90
15556;DHT22;7879;48.660;9.116;2024-01-30T02:28:39;0.10;99.90
15556;DHT22;7879;48.660;9.116;2024-01-30T02:31:06;0.10;99.90
15556;DHT22;7879;48.660;9.116;2024-01-30T02:33:33;0.10;99.90
15556;DHT22;7879;48.660;9.116;2024-01-30T02:36:00;0.10;99.90
15556;DHT22;7879;48.660;9.116;2024-01-30T02:38:27;0.10;99.90
15556;DHT22;7879;48.660;9.116;2024-01-30T02:40:55;0.00;99.90
15556;DHT22;7879;48.660;9.116;2024-01-30T02:43:23;0.00;99.90
15556;DHT22;7879;48.660;9.116;2024-01-30T02:45:50;0.10;99.90
15556;DHT22;7879;48.660;9.116;2024-01-30T02:48:17;0.00;99.90
15556;DHT22;7879;48.660;9.116;2024-01-30T02:50:44;0.00;99.90
15556;DHT22;7879;48.660;9.116;2024-01-30T02:53:11;0.00;99.90
15556;DHT22;7879;48.660;9.116;2024-01-30T02:55:38;0.10;99.90
15556;DHT22;7879;48.660;9.116;2024-01-30T02:58:04;0.00;99.90
15556;DHT22;7879;48.660;9.116;2024-01-30T03:00:31;0.10;99.90
15556;DHT22;7879;48.660;9.116;2024-01-30T03:02:58;0.00;99.90
15556;DHT22;7879;48.660;9.116;2024-01-30T03:05:26;0.00;99.90
15556;DHT22;7879;48.660;9.116;2024-01-30T03:07:52;0.00;99.90
15556;DHT22;7879;48.660;9.116;2024-01-30T03:10:20;-0.10;99.90
15556;DHT22;7879;48.660;9.116;2024-01-30T03:12:46;-0.10;99.90
15556;DHT22;7879;48.660;9.116;2024-01-30T03:15:13;-0.10;99.90
15556;DHT22;7879;48.660;9.116;2024-01-30T03:17:41;-0.10;99.90
15556;DHT22;7879;48.660;9.116;2024-01-30T03:20:08;-0.10;99.90
15556;DHT22;7879;48.660;9.116;2024-01-30T03:22:35;-0.10;99.90
15556;DHT22;7879;48.660;9.116;2024-01-30T03:25:03;-0.20;99.90
15556;DHT22;7879;48.660;9.116;2024-01-30T03:27:30;-0.20;99.90
15556;DHT22;7879;48.660;9.116;2024-01-30T03:29:57;-0.20;99.90
15556;DHT22;7879;48.660;9.116;2024-01-30T03:32:23;-0.20;99.90
15556;DHT22;7879;48.660;9.116;2024-01-30T03:34:50;-0.20;99.90
15556;DHT22;7879;48.660;9.116;2024-01-30T03:37:17;-0.10;99.90
15556;DHT22;7879;48.660;9.116;2024-01-30T03:39:44;-0.10;99.90
15556;DHT22;7879;48.660;9.116;2024-01-30T03:42:11;-0.10;99.90
15556;DHT22;7879;48.660;9.116;2024-01-30T03:44:38;-0.20;99.90
15556;DHT22;7879;48.660;9.116;2024-01-30T03:47:05;-0.20;99.90
15556;DHT22;7879;48.660;9.116;2024-01-30T03:49:32;-0.20;99.90
15556;DHT22;7879;48.660;9.116;2024-01-30T03:51:59;-0.30;99.90
15556;DHT22;7879;48.660;9.116;2024-01-30T03:54:26;-0.30;99.90
15556;DHT22;7879;48.660;9.116;2024-01-30T03:56:53;-0.30;99.90
15556;DHT22;7879;48.660;9.116;2024-01-30T03:59:19;-0.30;99.90
15556;DHT22;7879;48.660;9.116;2024-01-30T04:01:51;-0.30;99.90
15556;DHT22;7879;48.660;9.116;2024-01-30T04:04:18;-0.30;99.90
15556;DHT22;7879;48.660;9.116;2024-01-30T04:06:46;-0.30;99.90
15556;DHT22;7879;48.660;9.116;2024-01-30T04:09:13;-0.30;99.90
15556;DHT22;7879;48.660;9.116;2024-01-30T04:11:41;-0.30;99.90
15556;DHT22;7879;48.660;9.116;2024-01-30T04:14:09;-0.30;99.90
15556;DHT22;7879;48.660;9.116;2024-01-30T04:16:36;-0.30;99.90
15556;DHT22;7879;48.660;9.116;2024-01-30T04:19:03;-0.30;99.90
15556;DHT22;7879;48.660;9.116;2024-01-30T04:21:30;-0.30;99.90
15556;DHT22;7879;48.660;9.116;2024-01-30T04:23:56;-0.30;99.90
15556;DHT22;7879;48.660;9.116;2024-01-30T04:26:24;-0.40;99.90
15556;DHT22;7879;48.660;9.116;2024-01-30T04:28:51;-0.40;99.90
15556;DHT22;7879;48.660;9.116;2024-01-30T04:31:18;-0.40;99.90
15556;DHT22;7879;48.660;9.116;2024-01-30T04:33:45;-0.40;99.90
15556;DHT22;7879;48.660;9.116;2024-01-30T04:36:12;-0.40;99.90
15556;DHT22;7879;48.660;9.116;2024-01-30T04:38:39;-0.50;99.90
15556;DHT22;7879;48.660;9.116;2024-01-30T04:41:07;-0.50;99.90
15556;DHT22;7879;48.660;9.116;2024-01-30T04:43:34;-0.50;99.90
15556;DHT22;7879;48.660;9.116;2024-01-30T04:46:01;-0.50;99.90
15556;DHT22;7879;48.660;9.116;2024-01-30T04:48:28;-0.50;99.90
15556;DHT22;7879;48.660;9.116;2024-01-30T04:50:55;-0.60;99.90
15556;DHT22;7879;48.660;9.116;2024-01-30T04:53:23;-0.60;99.90
15556;DHT22;7879;48.660;9.116;2024-01-30T04:55:50;-0.70;99.90
15556;DHT22;7879;48.660;9.116;2024-01-30T04:58:16;-0.70;99.90
15556;DHT22;7879;48.660;9.116;2024-01-30T05:00:43;-0.60;99.90
15556;DHT22;7879;48.660;9.116;2024-01-30T05:03:10;-0.60;99.90
15556;DHT22;7879;48.660;9.116;2024-01-30T05:05:37;-0.60;99.90
15556;DHT22;7879;48.660;9.116;2024-01-30T05:08:05;-0.60;99.90
15556;DHT22;7879;48.660;9.116;2024-01-30T05:10:32;-0.60;99.90
15556;DHT22;7879;48.660;9.116;2024-01-30T05:12:58;-0.70;99.90
15556;DHT22;7879;48.660;9.116;2024-01-30T05:15:25;-0.70;99.90
15556;DHT22;7879;48.660;9.116;2024-01-30T05:17:52;-0.70;99.90
15556;DHT22;7879;48.660;9.116;2024-01-30T05:20:19;-0.80;99.90
15556;DHT22;7879;48.660;9.116;2024-01-30T05:22:46;-0.80;99.90
15556;DHT22;7879;48.660;9.116;2024-01-30T05:25:13;-0.80;99.90
15556;DHT22;7879;48.660;9.116;2024-01-30T05:27:40;-0.80;99.90
15556;DHT22;7879;48.660;9.116;2024-01-30T05:30:07;-0.80;99.90
15556;DHT22;7879;48.660;9.116;2024-01-30T05:32:35;-0.80;99.90
15556;DHT22;7879;48.660;9.116;2024-01-30T05:35:02;-0.80;99.90
15556;DHT22;7879;48.660;9.116;2024-01-30T05:37:29;-0.80;99.90
15556;DHT22;7879;48.660;9.116;2024-01-30T05:39:56;-0.80;99.90
15556;DHT22;7879;48.660;9.116;2024-01-30T05:42:25;-0.80;99.90
15556;DHT22;7879;48.660;9.116;2024-01-30T05:44:52;-0.80;99.90
15556;DHT22;7879;48.660;9.116;2024-01-30T05:47:19;-0.90;99.90
15556;DHT22;7879;48.660;9.116;2024-01-30T05:49:46;-0.90;99.90
15556;DHT22;7879;48.660;9.116;2024-01-30T05:52:13;-0.80;99.90
15556;DHT22;7879;48.660;9.116;2024-01-30T05:54:41;-0.90;99.90
15556;DHT22;7879;48.660;9.116;2024-01-30T05:57:08;-0.90;99.90
15556;DHT22;7879;48.660;9.116;2024-01-30T05:59:35;-0.90;99.90
15556;DHT22;7879;48.660;9.116;2024-01-30T06:02:07;-0.90;99.90
15556;DHT22;7879;48.660;9.116;2024-01-30T06:04:34;-0.90;99.90
15556;DHT22;7879;48.660;9.116;2024-01-30T06:07:01;-0.90;99.90
15556;DHT22;7879;48.660;9.116;2024-01-30T06:09:29;-0.90;99.90
15556;DHT22;7879;48.660;9.116;2024-01-30T06:11:55;-0.90;99.90
15556;DHT22;7879;48.660;9.116;2024-01-30T06:14:22;-1.00;99.90
15556;DHT22;7879;48.660;9.116;2024-01-30T06:16:49;-1.00;99.90
15556;DHT22;7879;48.660;9.116;2024-01-30T06:19:16;-1.00;99.90
15556;DHT22;7879;48.660;9.116;2024-01-30T06:21:44;-0.90;99.90
15556;DHT22;7879;48.660;9.116;2024-01-30T06:24:12;-1.00;99.90
15556;DHT22;7879;48.660;9.116;2024-01-30T06:26:39;-1.00;99.90
15556;DHT22;7879;48.660;9.116;2024-01-30T06:29:06;-1.00;99.90
15556;DHT22;7879;48.660;9.116;2024-01-30T06:31:42;-1.00;99.90
15556;DHT22;7879;48.660;9.116;2024-01-30T06:34:09;-1.00;99.90
15556;DHT22;7879;48.660;9.116;2024-01-30T06:36:38;-1.00;99.90
15556;DHT22;7879;48.660;9.116;2024-01-30T06:39:05;-1.00;99.90
15556;DHT22;7879;48.660;9.116;2024-01-30T06:41:32;-1.00;99.90
15556;DHT22;7879;48.660;9.116;2024-01-30T06:43:59;-1.10;99.90
15556;DHT22;7879;48.660;9.116;2024-01-30T06:46:26;-1.10;99.90
15556;DHT22;7879;48.660;9.116;2024-01-30T06:48:54;-1.20;99.90
15556;DHT22;7879;48.660;9.116;2024-01-30T06:51:21;-1.20;99.90
15556;DHT22;7879;48.660;9.116;2024-01-30T06:53:48;-1.10;99.90
15556;DHT22;7879;48.660;9.116;2024-01-30T06:56:16;-1.10;99.90
15556;DHT22;7879;48.660;9.116;2024-01-30T06:58:48;-1.10;99.90
15556;DHT22;7879;48.660;9.116;2024-01-30T07:01:15;-1.00;99.90
15556;DHT22;7879;48.660;9.116;2024-01-30T07:03:43;-1.00;99.90
15556;DHT22;7879;48.660;9.116;2024-01-30T07:06:10;-1.00;99.90
15556;DHT22;7879;48.660;9.116;2024-01-30T07:08:37;-1.00;99.90
15556;DHT22;7879;48.660;9.116;2024-01-30T07:11:07;-1.00;99.90
15556;DHT22;7879;48.660;9.116;2024-01-30T07:13:34;-1.00;99.90
15556;DHT22;7879;48.660;9.116;2024-01-30T07:16:02;-1.10;99.90
15556;DHT22;7879;48.660;9.116;2024-01-30T07:18:28;-1.00;99.90
15556;DHT22;7879;48.660;9.116;2024-01-30T07:20:55;-1.00;99.90
15556;DHT22;7879;48.660;9.116;2024-01-30T07:23:22;-1.00;99.90
15556;DHT22;7879;48.660;9.116;2024-01-30T07:25:50;-1.00;99.90
15556;DHT22;7879;48.660;9.116;2024-01-30T07:28:19;-1.10;99.90
15556;DHT22;7879;48.660;9.116;2024-01-30T07:30:47;-1.10;99.90
15556;DHT22;7879;48.660;9.116;2024-01-30T07:33:16;-1.00;99.90
15556;DHT22;7879;48.660;9.116;2024-01-30T07:35:45;-1.00;99.90
15556;DHT22;7879;48.660;9.116;2024-01-30T07:38:12;-1.00;99.90
15556;DHT22;7879;48.660;9.116;2024-01-30T07:40:39;-0.90;99.90
15556;DHT22;7879;48.660;9.116;2024-01-30T07:43:08;-0.90;99.90
15556;DHT22;7879;48.660;9.116;2024-01-30T07:45:35;-0.90;99.90
15556;DHT22;7879;48.660;9.116;2024-01-30T07:48:02;-0.80;99.90
15556;DHT22;7879;48.660;9.116;2024-01-30T07:50:30;-0.80;99.90
15556;DHT22;7879;48.660;9.116;2024-01-30T07:53:00;-0.80;99.90
15556;DHT22;7879;48.660;9.116;2024-01-30T07:55:27;-0.70;99.90
15556;DHT22;7879;48.660;9.116;2024-01-30T07:57:56;-0.70;99.90
15556;DHT22;7879;48.660;9.116;2024-01-30T08:00:23;-0.70;99.90
15556;DHT22;7879;48.660;9.116;2024-01-30T08:02:50;-0.70;99.90
15556;DHT22;7879;48.660;9.116;2024-01-30T08:05:21;-0.60;99.90
15556;DHT22;7879;48.660;9.116;2024-01-30T08:07:51;-0.60;99.90
15556;DHT22;7879;48.660;9.116;2024-01-30T08:10:19;-0.50;99.90
15556;DHT22;7879;48.660;9.116;2024-01-30T08:12:47;-0.50;99.90
15556;DHT22;7879;48.660;9.116;2024-01-30T08:15:14;-0.40;99.90
15556;DHT22;7879;48.660;9.116;2024-01-30T08:17:42;-0.40;99.90
15556;DHT22;7879;48.660;9.116;2024-01-30T08:20:11;-0.30;99.90
15556;DHT22;7879;48.660;9.116;2024-01-30T08:22:39;-0.20;99.90
15556;DHT22;7879;48.660;9.116;2024-01-30T08:25:12;-0.20;99.90
15556;DHT22;7879;48.660;9.116;2024-01-30T08:27:43;-0.10;99.90
15556;DHT22;7879;48.660;9.116;2024-01-30T08:30:12;0.00;99.90
15556;DHT22;7879;48.660;9.116;2024-01-30T08:32:41;0.00;99.90
15556;DHT22;7879;48.660;9.116;2024-01-30T08:35:10;0.10;99.90
15556;DHT22;7879;48.660;9.116;2024-01-30T08:37:43;0.20;99.90
15556;DHT22;7879;48.660;9.116;2024-01-30T08:40:12;0.20;99.90
15556;DHT22;7879;48.660;9.116;2024-01-30T08:42:43;0.30;99.90
15556;DHT22;7879;48.660;9.116;2024-01-30T08:45:10;0.40;99.90
15556;DHT22;7879;48.660;9.116;2024-01-30T08:47:38;0.40;99.90
15556;DHT22;7879;48.660;9.116;2024-01-30T08:50:05;0.50;99.90
15556;DHT22;7879;48.660;9.116;2024-01-30T08:52:33;0.50;99.90
15556;DHT22;7879;48.660;9.116;2024-01-30T08:55:01;0.60;99.90
15556;DHT22;7879;48.660;9.116;2024-01-30T08:57:28;0.60;99.90
15556;DHT22;7879;48.660;9.116;2024-01-30T08:59:56;0.70;99.90
15556;DHT22;7879;48.660;9.116;2024-01-30T09:02:23;0.80;99.90
15556;DHT22;7879;48.660;9.116;2024-01-30T09:04:50;0.80;99.90
15556;DHT22;7879;48.660;9.116;2024-01-30T09:07:17;0.90;99.90
15556;DHT22;7879;48.660;9.116;2024-01-30T09:09:44;0.90;99.90
15556;DHT22;7879;48.660;9.116;2024-01-30T09:12:11;1.00;99.90
15556;DHT22;7879;48.660;9.116;2024-01-30T09:14:39;1.10;99.90
15556;DHT22;7879;48.660;9.116;2024-01-30T09:17:08;1.20;99.90
15556;DHT22;7879;48.660;9.116;2024-01-30T09:19:35;1.20;99.90
15556;DHT22;7879;48.660;9.116;2024-01-30T09:22:03;1.30;99.90
15556;DHT22;7879;48.660;9.116;2024-01-30T09:24:30;1.40;99.90
15556;DHT22;7879;48.660;9.116;2024-01-30T09:26:57;1.50;99.90
15556;DHT22;7879;48.660;9.116;2024-01-30T09:29:25;1.70;99.90
15556;DHT22;7879;48.660;9.116;2024-01-30T09:31:52;1.90;99.90
15556;DHT22;7879;48.660;9.116;2024-01-30T09:34:19;2.00;99.90
15556;DHT22;7879;48.660;9.116;2024-01-30T09:36:46;2.30;99.90
15556;DHT22;7879;48.660;9.116;2024-01-30T09:39:13;2.50;99.90
15556;DHT22;7879;48.660;9.116;2024-01-30T09:41:49;2.60;99.90
15556;DHT22;7879;48.660;9.116;2024-01-30T09:44:20;2.70;99.90
15556;DHT22;7879;48.660;9.116;2024-01-30T09:46:47;2.70;99.90
15556;DHT22;7879;48.660;9.116;2024-01-30T09:49:15;2.80;99.90
15556;DHT22;7879;48.660;9.116;2024-01-30T09:51:47;3.00;99.90
15556;DHT22;7879;48.660;9.116;2024-01-30T09:54:15;3.20;99.90
15556;DHT22;7879;48.660;9.116;2024-01-30T09:56:43;3.40;99.90
15556;DHT22;7879;48.660;9.116;2024-01-30T09:59:10;3.50;99.90
15556;DHT22;7879;48.660;9.116;2024-01-30T10:01:37;3.70;99.90
15556;DHT22;7879;48.660;9.116;2024-01-30T10:04:08;3.90;99.90
15556;DHT22;7879;48.660;9.116;2024-01-30T10:06:37;3.90;99.90
15556;DHT22;7879;48.660;9.116;2024-01-30T10:09:04;3.90;99.90
15556;DHT22;7879;48.660;9.116;2024-01-30T10:11:31;3.90;99.90
15556;DHT22;7879;48.660;9.116;2024-01-30T10:13:58;3.90;99.90
15556;DHT22;7879;48.660;9.116;2024-01-30T10:16:25;4.00;99.90
15556;DHT22;7879;48.660;9.116;2024-01-30T10:18:52;4.10;99.90
15556;DHT22;7879;48.660;9.116;2024-01-30T10:21:19;4.20;99.90
15556;DHT22;7879;48.660;9.116;2024-01-30T10:23:46;4.20;99.90
15556;DHT22;7879;48.660;9.116;2024-01-30T10:26:13;4.20;99.90
15556;DHT22;7879;48.660;9.116;2024-01-30T10:28:43;4.30;99.90
15556;DHT22;7879;48.660;9.116;2024-01-30T10:31:10;4.30;99.90
15556;DHT22;7879;48.660;9.116;2024-01-30T10:33:37;4.30;99.90
15556;DHT22;7879;48.660;9.116;2024-01-30T10:36:05;4.40;99.90
15556;DHT22;7879;48.660;9.116;2024-01-30T10:38:33;4.40;99.90
15556;DHT22;7879;48.660;9.116;2024-01-30T10:41:01;4.40;99.90
15556;DHT22;7879;48.660;9.116;2024-01-30T10:43:41;4.50;99.90
15556;DHT22;7879;48.660;9.116;2024-01-30T10:48:36;4.60;99.90
15556;DHT22;7879;48.660;9.116;2024-01-30T10:51:10;4.80;99.90
15556;DHT22;7879;48.660;9.116;2024-01-30T10:53:38;4.80;99.90
15556;DHT22;7879;48.660;9.116;2024-01-30T10:56:06;4.90;99.90
15556;DHT22;7879;48.660;9.116;2024-01-30T10:58:35;5.00;99.90
15556;DHT22;7879;48.660;9.116;2024-01-30T11:01:02;5.10;99.90
15556;DHT22;7879;48.660;9.116;2024-01-30T11:03:30;5.30;99.90
15556;DHT22;7879;48.660;9.116;2024-01-30T11:06:00;5.30;99.90
15556;DHT22;7879;48.660;9.116;2024-01-30T11:08:28;5.40;99.90
15556;DHT22;7879;48.660;9.116;2024-01-30T11:10:56;5.60;99.90
15556;DHT22;7879;48.660;9.116;2024-01-30T11:13:27;5.70;99.90
15556;DHT22;7879;48.660;9.116;2024-01-30T11:16:00;5.70;99.90
15556;DHT22;7879;48.660;9.116;2024-01-30T11:18:31;5.70;99.90
15556;DHT22;7879;48.660;9.116;2024-01-30T11:20:59;5.80;99.90
15556;DHT22;7879;48.660;9.116;2024-01-30T11:23:28;5.90;99.90
15556;DHT22;7879;48.660;9.116;2024-01-30T11:25:56;6.10;99.90
15556;DHT22;7879;48.660;9.116;2024-01-30T11:28:33;6.10;99.90
15556;DHT22;7879;48.660;9.116;2024-01-30T11:31:05;6.30;99.90
15556;DHT22;7879;48.660;9.116;2024-01-30T11:33:34;6.40;99.90
15556;DHT22;7879;48.660;9.116;2024-01-30T11:36:01;6.50;99.90
15556;DHT22;7879;48.660;9.116;2024-01-30T11:38:29;6.60;99.90
15556;DHT22;7879;48.660;9.116;2024-01-30T11:40:56;6.60;99.90
15556;DHT22;7879;48.660;9.116;2024-01-30T11:43:24;6.70;99.90
15556;DHT22;7879;48.660;9.116;2024-01-30T11:45:51;6.70;99.90
15556;DHT22;7879;48.660;9.116;2024-01-30T11:48:19;6.70;99.90
15556;DHT22;7879;48.660;9.116;2024-01-30T11:50:47;6.70;99.90
15556;DHT22;7879;48.660;9.116;2024-01-30T11:53:14;6.80;99.90
15556;DHT22;7879;48.660;9.116;2024-01-30T11:55:41;6.80;99.90
15556;DHT22;7879;48.660;9.116;2024-01-30T11:58:09;6.90;99.90
15556;DHT22;7879;48.660;9.116;2024-01-30T12:00:36;7.00;99.90
15556;DHT22;7879;48.660;9.116;2024-01-30T12:03:03;7.10;99.90
15556;DHT22;7879;48.660;9.116;2024-01-30T12:05:32;7.10;99.90
15556;DHT22;7879;48.660;9.116;2024-01-30T12:07:59;7.00;99.90
15556;DHT22;7879;48.660;9.116;2024-01-30T12:10:28;7.10;99.90
15556;DHT22;7879;48.660;9.116;2024-01-30T12:12:55;7.20;99.90
15556;DHT22;7879;48.660;9.116;2024-01-30T12:15:23;7.20;99.90
15556;DHT22;7879;48.660;9.116;2024-01-30T12:17:51;7.20;99.90
15556;DHT22;7879;48.660;9.116;2024-01-30T12:20:19;7.20;99.90
15556;DHT22;7879;48.660;9.116;2024-01-30T12:22:48;7.30;99.90
15556;DHT22;7879;48.660;9.116;2024-01-30T12:25:20;7.30;99.90
15556;DHT22;7879;48.660;9.116;2024-01-30T12:27:49;7.40;99.90
15556;DHT22;7879;48.660;9.116;2024-01-30T12:30:18;7.60;99.90
15556;DHT22;7879;48.660;9.116;2024-01-30T12:32:47;7.60;99.90
15556;DHT22;7879;48.660;9.116;2024-01-30T12:35:17;7.60;99.90
15556;DHT22;7879;48.660;9.116;2024-01-30T12:37:46;7.60;99.90
15556;DHT22;7879;48.660;9.116;2024-01-30T12:40:16;7.60;99.90
15556;DHT22;7879;48.660;9.116;2024-01-30T12:42:46;7.70;99.90
15556;DHT22;7879;48.660;9.116;2024-01-30T12:45:16;7.70;99.90
15556;DHT22;7879;48.660;9.116;2024-01-30T12:47:48;7.80;99.90
15556;DHT22;7879;48.660;9.116;2024-01-30T12:50:15;7.90;99.90
15556;DHT22;7879;48.660;9.116;2024-01-30T12:52:44;7.90;99.90
15556;DHT22;7879;48.660;9.116;2024-01-30T12:55:16;8.00;99.90
15556;DHT22;7879;48.660;9.116;2024-01-30T12:57:43;8.00;99.90
15556;DHT22;7879;48.660;9.116;2024-01-30T13:00:11;8.00;99.90
15556;DHT22;7879;48.660;9.116;2024-01-30T13:02:38;8.10;99.90
15556;DHT22;7879;48.660;9.116;2024-01-30T13:05:05;8.10;99.90
15556;DHT22;7879;48.660;9.116;2024-01-30T13:07:33;8.20;99.90
15556;DHT22;7879;48.660;9.116;2024-01-30T13:10:00;8.20;99.90
15556;DHT22;7879;48.660;9.116;2024-01-30T13:12:31;8.30;99.90
15556;DHT22;7879;48.660;9.116;2024-01-30T13:15:02;8.30;99.90
15556;DHT22;7879;48.660;9.116;2024-01-30T13:17:31;8.40;99.90
15556;DHT22;7879;48.660;9.116;2024-01-30T13:19:58;8.50;99.90
15556;DHT22;7879;48.660;9.116;2024-01-30T13:22:36;8.50;99.90
15556;DHT22;7879;48.660;9.116;2024-01-30T13:25:05;8.50;99.90
15556;DHT22;7879;48.660;9.116;2024-01-30T13:27:35;8.70;99.90
15556;DHT22;7879;48.660;9.116;2024-01-30T13:30:02;8.80;99.90
15556;DHT22;7879;48.660;9.116;2024-01-30T13:32:30;8.80;99.90
15556;DHT22;7879;48.660;9.116;2024-01-30T13:34:57;8.90;99.90
15556;DHT22;7879;48.660;9.116;2024-01-30T13:37:25;9.10;99.90
15556;DHT22;7879;48.660;9.116;2024-01-30T13:39:52;9.20;99.90
15556;DHT22;7879;48.660;9.116;2024-01-30T13:42:19;9.30;99.90
15556;DHT22;7879;48.660;9.116;2024-01-30T13:44:46;9.30;99.90
15556;DHT22;7879;48.660;9.116;2024-01-30T13:47:13;9.30;99.90
15556;DHT22;7879;48.660;9.116;2024-01-30T13:49:41;9.20;99.90
15556;DHT22;7879;48.660;9.116;2024-01-30T13:52:08;9.20;99.90
15556;DHT22;7879;48.660;9.116;2024-01-30T13:54:35;9.30;99.90
15556;DHT22;7879;48.660;9.116;2024-01-30T13:57:02;9.30;99.90
15556;DHT22;7879;48.660;9.116;2024-01-30T13:59:29;9.30;99.90
15556;DHT22;7879;48.660;9.116;2024-01-30T14:01:56;9.30;99.90
15556;DHT22;7879;48.660;9.116;2024-01-30T14:04:23;9.30;99.90
15556;DHT22;7879;48.660;9.116;2024-01-30T14:06:51;9.40;99.90
15556;DHT22;7879;48.660;9.116;2024-01-30T14:09:30;9.40;99.90
15556;DHT22;7879;48.660;9.116;2024-01-30T14:11:59;9.30;99.90
15556;DHT22;7879;48.660;9.116;2024-01-30T14:14:26;9.30;99.90
15556;DHT22;7879;48.660;9.116;2024-01-30T14:16:53;9.40;99.90
15556;DHT22;7879;48.660;9.116;2024-01-30T14:19:20;9.30;99.90
15556;DHT22;7879;48.660;9.116;2024-01-30T14:21:47;9.30;99.90
15556;DHT22;7879;48.660;9.116;2024-01-30T14:24:14;9.30;99.90
15556;DHT22;7879;48.660;9.116;2024-01-30T14:26:41;9.30;99.90
15556;DHT22;7879;48.660;9.116;2024-01-30T14:29:08;9.30;99.90
15556;DHT22;7879;48.660;9.116;2024-01-30T14:31:35;9.40;99.90
15556;DHT22;7879;48.660;9.116;2024-01-30T14:34:02;9.40;99.90
15556;DHT22;7879;48.660;9.116;2024-01-30T14:36:29;9.50;99.90
15556;DHT22;7879;48.660;9.116;2024-01-30T14:38:56;9.50;99.90
15556;DHT22;7879;48.660;9.116;2024-01-30T14:41:23;9.50;99.90
15556;DHT22;7879;48.660;9.116;2024-01-30T14:43:50;9.40;99.90
15556;DHT22;7879;48.660;9.116;2024-01-30T14:46:17;9.40;99.90
15556;DHT22;7879;48.660;9.116;2024-01-30T14:48:45;9.40;99.90
15556;DHT22;7879;48.660;9.116;2024-01-30T14:51:12;9.30;99.90
15556;DHT22;7879;48.660;9.116;2024-01-30T14:53:40;9.30;99.90
15556;DHT22;7879;48.660;9.116;2024-01-30T14:56:07;9.30;99.90
15556;DHT22;7879;48.660;9.116;2024-01-30T14:58:34;9.20;99.90
15556;DHT22;7879;48.660;9.116;2024-01-30T15:01:02;9.20;99.90
15556;DHT22;7879;48.660;9.116;2024-01-30T15:03:29;9.10;99.90
15556;DHT22;7879;48.660;9.116;2024-01-30T15:05:57;9.10;99.90
15556;DHT22;7879;48.660;9.116;2024-01-30T15:08:25;9.00;99.90
15556;DHT22;7879;48.660;9.116;2024-01-30T15:10:52;9.00;99.90
15556;DHT22;7879;48.660;9.116;2024-01-30T15:13:19;8.90;99.90
15556;DHT22;7879;48.660;9.116;2024-01-30T15:15:46;8.90;99.90
15556;DHT22;7879;48.660;9.116;2024-01-30T15:18:14;8.80;99.90
15556;DHT22;7879;48.660;9.116;2024-01-30T15:20:41;8.80;99.90
15556;DHT22;7879;48.660;9.116;2024-01-30T15:23:08;8.70;99.90
15556;DHT22;7879;48.660;9.116;2024-01-30T15:25:35;8.70;99.90
15556;DHT22;7879;48.660;9.116;2024-01-30T15:28:03;8.70;99.90
15556;DHT22;7879;48.660;9.116;2024-01-30T15:30:30;8.60;99.90
15556;DHT22;7879;48.660;9.116;2024-01-30T15:32:57;8.60;99.90
15556;DHT22;7879;48.660;9.116;2024-01-30T15:35:24;8.50;99.90
15556;DHT22;7879;48.660;9.116;2024-01-30T15:37:51;8.50;99.90
15556;DHT22;7879;48.660;9.116;2024-01-30T15:40:19;8.50;99.90
15556;DHT22;7879;48.660;9.116;2024-01-30T15:42:46;8.40;99.90
15556;DHT22;7879;48.660;9.116;2024-01-30T15:45:13;8.40;99.90
15556;DHT22;7879;48.660;9.116;2024-01-30T15:47:40;8.30;99.90
15556;DHT22;7879;48.660;9.116;2024-01-30T15:50:07;8.30;99.90
15556;DHT22;7879;48.660;9.116;2024-01-30T15:52:36;8.20;99.90
15556;DHT22;7879;48.660;9.116;2024-01-30T15:55:03;8.20;99.90
15556;DHT22;7879;48.660;9.116;2024-01-30T15:57:30;8.10;99.90
15556;DHT22;7879;48.660;9.116;2024-01-30T15:59:57;8.10;99.90
15556;DHT22;7879;48.660;9.116;2024-01-30T16:02:24;8.00;99.90